Terminal Aerodrome Forecast
Issued by NWS

Current Version | Previous Version | Graphics & Text | Print | Product List | Glossary On
Versions: 1 2 3 4 5 6 7 8 9 10 11 12 13 14 15 16 17 18 19 20 21 22 23 24 25 26 27 28 29 30 31 32 33 34 35 36 37 38 39 40 41 42 43 44 45 46
000
FTUS41 KRNK 151737
TAFLWB
TAF
KLWB 151737Z 1518/1618 00000KT P6SM SCT014 OVC040
     FM160000 VRB03KT P6SM SCT040 BKN100
     FM160800 29003KT 2SM BR SCT001 BKN050
     FM160900 VRB02KT 3/4SM BR OVC002
     FM161400 29003KT P6SM OVC025=

USA.gov is the U.S. government's official web portal to all federal, state and local government web resources and services.